Time;durP1;ratioP1;P1;durP2;ratioP2;P2;SDS_P1;SDS_P2;PMS_P1;PMS_P2;Temp;Humidity;BMP_temperature;BMP_pressure;BME280_temperature;BME280_humidity;BME280_pressure;Samples;Min_cycle;Max_cycle;Signal;HPM_P1;HPM_P2
2022/08/10 00:02:50;;;;;;;4.18;1.10;;;;;;;22.12;43.13;100346.38;4358785;32;34832;-77
2022/08/10 00:05:37;;;;;;;;;;;;;;;22.04;43.81;100338.25;4359330;32;34456;-77
2022/08/10 00:08:38;;;;;;;2.40;1.08;;;;;;;21.85;43.88;100342.69;4359104;32;34935;-77
2022/08/10 00:11:24;;;;;;;4.32;1.33;;;;;;;21.82;44.30;100343.41;4358873;32;34902;-77
2022/08/10 00:14:10;;;;;;;4.37;1.10;;;;;;;22.40;42.78;100334.91;4351380;32;35458;-77
2022/08/10 00:16:57;;;;;;;2.28;1.30;;;;;;;22.76;42.18;100337.44;4362318;32;34141;-77
2022/08/10 00:19:42;;;;;;;3.47;1.90;;;;;;;22.75;42.44;100328.25;4358898;32;34364;-77
2022/08/10 00:22:49;;;;;;;3.03;1.00;;;;;;;22.95;41.98;100328.97;4357208;32;34865;-76
2022/08/10 00:25:42;;;;;;;5.47;1.83;;;;;;;23.01;42.01;100326.66;4358627;32;36488;-78
2022/08/10 00:28:29;;;;;;;2.40;1.10;;;;;;;22.80;42.37;100332.72;4355847;32;90543;-77
2022/08/10 00:31:15;;;;;;;4.20;1.30;;;;;;;22.71;42.73;100334.94;4357442;32;34695;-77
2022/08/10 00:34:01;;;;;;;2.42;1.20;;;;;;;22.82;42.46;100330.34;4354260;32;35874;-78
2022/08/10 00:36:48;;;;;;;3.92;1.17;;;;;;;23.20;42.09;100339.69;4358287;32;35500;-77
2022/08/10 00:39:34;;;;;;;1.80;1.10;;;;;;;22.61;42.82;100326.03;4358182;32;34094;-77
2022/08/10 00:42:22;;;;;;;4.53;1.37;;;;;;;22.88;42.29;100324.06;4358604;32;34418;-78
2022/08/10 00:45:09;;;;;;;3.37;1.20;;;;;;;22.38;43.55;100328.87;4358523;32;35543;-77
2022/08/10 00:47:55;;;;;;;2.25;1.08;;;;;;;22.14;44.16;100329.22;4358414;32;34607;-77
2022/08/10 00:50:41;;;;;;;2.55;1.05;;;;;;;21.37;46.18;100331.00;4359230;32;34757;-77
2022/08/10 00:53:27;;;;;;;2.25;1.27;;;;;;;21.36;46.07;100322.97;4358860;32;34391;-77
2022/08/10 00:56:14;;;;;;;3.03;1.20;;;;;;;21.67;45.54;100330.41;4358423;32;35077;-77
2022/08/10 00:59:20;;;;;;;3.30;1.23;;;;;;;20.86;47.82;100322.72;4364565;32;34803;-77
2022/08/10 01:02:07;;;;;;;2.90;1.20;;;;;;;21.39;47.02;100337.00;4362203;32;34394;-77
2022/08/10 01:05:02;;;;;;;2.28;1.45;;;;;;;22.26;44.56;100326.31;4355908;32;34655;-77
2022/08/10 01:08:39;;;;;;;3.37;1.20;;;;;;;21.70;45.74;100326.88;4357629;32;35463;-77
2022/08/10 01:11:34;;;;;;;3.58;1.30;;;;;;;21.95;45.53;100333.72;4347951;32;35260;-76
2022/08/10 01:15:02;;;;;;;1.77;1.00;;;;;;;22.08;44.77;100331.53;4361191;32;34662;-77
2022/08/10 01:18:33;;;;;;;2.37;1.10;;;;;;;21.64;45.94;100334.72;4361671;32;34076;-77
2022/08/10 01:22:00;;;;;;;3.00;1.17;;;;;;;21.70;46.38;100333.25;4352988;32;34983;-77
2022/08/10 01:25:10;;;;;;;2.40;1.10;;;;;;;21.72;46.12;100330.91;4359077;32;34697;-77
2022/08/10 01:28:02;;;;;;;4.53;1.35;;;;;;;21.53;46.92;100328.13;4358930;32;34082;-77
2022/08/10 01:30:52;;;;;;;2.30;1.45;;;;;;;22.31;44.97;100325.97;4358485;32;34242;-77
2022/08/10 01:33:54;;;;;;;2.62;1.52;;;;;;;22.01;45.90;100329.44;4352972;32;34675;-77
2022/08/10 01:36:50;;;;;;;2.55;1.00;;;;;;;21.87;45.76;100328.37;4350218;32;34681;-77
2022/08/10 01:39:39;;;;;;;3.33;1.50;;;;;;;22.27;45.00;100332.69;4350475;32;35161;-77
2022/08/10 01:42:28;;;;;;;4.53;1.40;;;;;;;21.94;46.06;100334.91;4360977;32;35594;-77
2022/08/10 01:45:16;;;;;;;3.35;1.58;;;;;;;21.56;46.80;100335.75;4365353;32;35953;-77
2022/08/10 01:51:16;;;;;;;3.30;0.95;;;;;;;22.30;45.24;100331.94;4352596;32;33743;-77
2022/08/10 01:54:07;;;;;;;2.35;1.10;;;;;;;21.77;46.48;100335.34;4352023;32;34626;-77
2022/08/10 01:57:00;;;;;;;3.08;1.30;;;;;;;21.71;47.39;100336.84;4348819;32;35556;-77
2022/08/10 01:59:48;;;;;;;3.62;1.52;;;;;;;21.01;48.90;100343.34;4360210;32;34856;-77
2022/08/10 02:02:51;;;;;;;3.80;2.40;;;;;;;22.01;46.54;100337.78;4352064;32;34439;-77
2022/08/10 02:05:39;;;;;;;3.97;1.35;;;;;;;21.94;46.90;100342.44;4365416;32;34636;-77
2022/08/10 02:08:26;;;;;;;1.80;1.20;;;;;;;22.13;46.35;100341.59;4358120;32;34845;-77
2022/08/10 02:11:13;;;;;;;2.42;1.40;;;;;;;21.78;47.77;100336.97;4366305;32;34701;-77
2022/08/10 02:14:00;;;;;;;6.87;1.35;;;;;;;21.67;47.71;100344.34;4359840;32;34071;-77
2022/08/10 02:16:50;;;;;;;4.60;1.60;;;;;;;21.86;47.24;100340.69;4351488;32;35556;-77
2022/08/10 02:19:38;;;;;;;2.97;1.27;;;;;;;21.75;48.08;100330.16;4349020;32;35951;-77
2022/08/10 02:22:25;;;;;;;2.35;1.62;;;;;;;21.02;50.09;100337.41;4350216;32;34635;-77
2022/08/10 02:25:32;;;;;;;2.90;1.48;;;;;;;20.70;51.16;100336.69;4348298;32;34690;-77
2022/08/10 02:28:31;;;;;;;2.17;1.20;;;;;;;21.77;47.86;100332.56;4357688;32;34200;-77
2022/08/10 02:31:20;;;;;;;3.75;1.70;;;;;;;22.23;46.51;100335.41;4356547;32;35013;-77
2022/08/10 02:34:12;;;;;;;2.92;1.23;;;;;;;21.40;49.49;100335.03;4357129;32;35568;-77
2022/08/10 02:37:02;;;;;;;4.97;1.37;;;;;;;21.92;47.87;100334.44;4354967;32;35109;-77
2022/08/10 02:39:56;;;;;;;3.55;1.50;;;;;;;21.37;49.39;100341.34;4358053;32;34787;-77
2022/08/10 02:42:53;;;;;;;4.05;1.50;;;;;;;20.73;50.45;100344.31;4357459;32;34993;-77
2022/08/10 02:46:06;;;;;;;2.72;1.30;;;;;;;21.00;50.50;100341.72;4349219;32;34613;-77
2022/08/10 02:49:01;;;;;;;1.98;1.20;;;;;;;22.02;47.53;100349.75;4341445;32;34157;-77
2022/08/10 02:52:00;;;;;;;6.25;1.60;;;;;;;22.23;47.14;100349.37;4359625;32;37457;-77
2022/08/10 02:55:11;;;;;;;2.10;1.33;;;;;;;22.07;47.57;100357.03;4359370;32;34535;-77
2022/08/10 02:58:09;;;;;;;4.90;1.50;;;;;;;22.06;47.42;100360.97;4364005;32;36859;-77
2022/08/10 03:01:08;;;;;;;5.15;1.67;;;;;;;22.01;47.57;100362.09;4362993;32;33836;-77
2022/08/10 03:04:06;;;;;;;1.95;1.27;;;;;;;21.27;49.24;100357.44;4355304;32;34303;-77
2022/08/10 03:06:55;;;;;;;2.37;1.27;;;;;;;21.40;49.44;100349.75;4352570;32;34998;-77
2022/08/10 03:09:42;;;;;;;3.42;1.37;;;;;;;21.87;47.58;100357.06;4351940;32;34652;-77
2022/08/10 03:12:29;;;;;;;2.15;1.35;;;;;;;22.19;46.97;100365.25;4358300;32;34724;-77
2022/08/10 03:15:26;;;;;;;2.80;1.70;;;;;;;21.91;48.21;100366.28;4359450;32;35352;-77
2022/08/10 03:18:13;;;;;;;4.12;1.40;;;;;;;21.71;48.37;100384.25;4355662;32;36177;-77
2022/08/10 03:21:00;;;;;;;2.85;1.33;;;;;;;21.60;48.67;100375.69;4356297;32;34633;-77
2022/08/10 03:23:47;;;;;;;3.50;1.50;;;;;;;21.91;47.90;100383.03;4362022;32;34123;-77
2022/08/10 03:26:33;;;;;;;3.05;1.52;;;;;;;21.95;48.09;100389.50;4361623;32;34737;-77
2022/08/10 03:29:20;;;;;;;3.25;1.58;;;;;;;21.56;48.35;100378.38;4345819;32;35919;-77
2022/08/10 03:32:08;;;;;;;3.80;1.40;;;;;;;21.36;49.15;100385.09;4358231;32;34680;-77
2022/08/10 03:34:55;;;;;;;4.97;1.90;;;;;;;20.73;51.39;100397.22;4350910;32;34086;-77
2022/08/10 03:37:41;;;;;;;3.10;1.37;;;;;;;21.16;50.06;100394.62;4350789;32;34656;-77
2022/08/10 03:40:29;;;;;;;3.33;1.58;;;;;;;20.83;51.36;100396.69;4364989;32;35914;-77
2022/08/10 03:43:32;;;;;;;5.87;1.98;;;;;;;20.65;51.96;100399.03;4351910;32;34296;-77
2022/08/10 03:46:22;;;;;;;2.90;1.40;;;;;;;20.50;52.27;100383.13;4352887;32;34731;-77
2022/08/10 03:49:09;;;;;;;2.97;1.40;;;;;;;20.13;53.29;100390.91;4359220;32;34195;-77
2022/08/10 03:51:56;;;;;;;6.72;2.28;;;;;;;21.36;50.00;100379.53;4353026;32;35648;-77
2022/08/10 03:54:45;;;;;;;3.75;1.40;;;;;;;21.09;50.51;100386.91;4351868;32;34400;-77
2022/08/10 03:57:32;;;;;;;2.20;1.30;;;;;;;21.42;50.07;100394.81;4357996;32;35242;-77
2022/08/10 04:00:18;;;;;;;3.53;1.60;;;;;;;21.89;48.48;100395.78;4358299;32;34217;-77
2022/08/10 04:03:05;;;;;;;3.47;1.42;;;;;;;21.68;49.39;100396.13;4359074;32;35089;-77
2022/08/10 04:05:51;;;;;;;6.82;1.52;;;;;;;21.14;50.67;100389.41;4352961;32;35214;-77
2022/08/10 04:08:41;;;;;;;2.78;1.40;;;;;;;21.44;49.66;100403.63;4350944;32;34142;-77
2022/08/10 04:11:28;;;;;;;3.60;1.62;;;;;;;21.62;48.01;100405.97;4340610;32;34665;-78
2022/08/10 04:14:14;;;;;;;3.50;1.20;;;;;;;21.51;48.69;100398.19;4358233;32;35042;-77
2022/08/10 04:17:22;;;;;;;3.10;1.60;;;;;;;21.45;49.41;100410.00;4359353;32;36199;-77
2022/08/10 04:20:37;;;;;;;3.10;1.30;;;;;;;21.28;49.43;100400.84;4362501;32;34140;-77
2022/08/10 04:23:29;;;;;;;3.03;1.30;;;;;;;21.07;49.90;100400.41;4361745;32;35192;-77
2022/08/10 04:26:16;;;;;;;4.87;1.58;;;;;;;21.64;48.64;100398.06;4362096;32;34981;-77
2022/08/10 04:29:02;;;;;;;4.07;1.45;;;;;;;20.83;49.94;100407.00;4352668;32;35553;-77
2022/08/10 04:31:49;;;;;;;3.25;1.50;;;;;;;20.40;51.11;100408.69;4361656;32;35135;-77
2022/08/10 04:34:38;;;;;;;3.70;1.40;;;;;;;20.70;50.21;100402.72;4362815;32;34257;-78
2022/08/10 04:37:25;;;;;;;5.82;1.40;;;;;;;20.52;50.38;100403.06;4361134;32;35032;-77
2022/08/10 04:40:12;;;;;;;4.43;1.42;;;;;;;21.27;48.47;100404.03;4359713;32;34721;-77
2022/08/10 04:43:15;;;;;;;3.03;1.33;;;;;;;21.44;48.97;100398.06;4351675;32;34781;-77
2022/08/10 04:46:01;;;;;;;4.25;1.58;;;;;;;20.99;48.98;100402.22;4353472;32;34303;-78
2022/08/10 04:48:48;;;;;;;3.45;1.40;;;;;;;21.31;48.26;100405.69;4363515;32;35004;-77
2022/08/10 04:51:47;;;;;;;6.45;1.50;;;;;;;21.20;48.94;100409.44;4360616;32;36260;-77
2022/08/10 04:54:33;;;;;;;3.42;1.30;;;;;;;20.98;48.67;100414.53;4360136;32;34298;-78
2022/08/10 04:57:20;;;;;;;3.80;1.40;;;;;;;21.28;47.69;100402.84;4360060;32;35483;-78
2022/08/10 05:00:07;;;;;;;10.07;1.35;;;;;;;21.30;47.94;100408.88;4359610;32;36021;-77
2022/08/10 05:03:04;;;;;;;4.07;1.00;;;;;;;21.56;47.06;100405.47;4360252;32;35571;-78
2022/08/10 05:05:50;;;;;;;2.95;1.40;;;;;;;21.26;47.19;100402.38;4359957;32;34800;-78
2022/08/10 05:08:40;;;;;;;3.70;1.15;;;;;;;21.31;47.60;100402.91;4360269;32;34755;-77
2022/08/10 05:11:26;;;;;;;8.93;1.37;;;;;;;21.25;48.05;100409.94;4360015;32;35037;-79
2022/08/10 05:14:13;;;;;;;6.18;1.08;;;;;;;21.29;47.12;100415.63;4359696;32;34665;-78
2022/08/10 05:16:59;;;;;;;3.80;1.23;;;;;;;21.22;47.35;100396.75;4360696;32;35239;-78
2022/08/10 05:19:45;;;;;;;2.85;1.52;;;;;;;21.06;47.85;100412.69;4359386;32;35583;-78
2022/08/10 05:22:51;;;;;;;5.32;1.52;;;;;;;21.27;47.97;100404.81;4359367;32;34673;-78
2022/08/10 05:25:37;;;;;;;2.83;1.10;;;;;;;21.70;46.07;100410.53;4360467;32;34677;-78
2022/08/10 05:28:23;;;;;;;3.42;1.50;;;;;;;21.70;46.18;100407.75;4360452;32;34115;-78
2022/08/10 05:31:15;;;;;;;3.47;1.23;;;;;;;21.75;46.52;100413.03;4360356;32;32899;-77
2022/08/10 05:34:10;;;;;;;2.87;1.20;;;;;;;21.91;45.63;100407.34;4359729;32;35150;-79
2022/08/10 05:37:10;;;;;;;2.70;1.27;;;;;;;21.69;45.31;100406.94;4360084;32;35067;-77
2022/08/10 05:40:16;;;;;;;2.78;1.10;;;;;;;22.19;45.18;100398.72;4359707;32;34335;-78
2022/08/10 05:43:03;;;;;;;4.57;1.08;;;;;;;22.02;44.98;100405.56;4354423;32;34562;-78
2022/08/10 05:45:50;;;;;;;5.95;1.20;;;;;;;21.87;44.74;100410.06;4354055;32;35961;-79
2022/08/10 05:48:57;;;;;;;3.67;1.60;;;;;;;21.84;44.98;100410.81;4354461;32;35758;-77
2022/08/10 05:51:46;;;;;;;3.33;1.12;;;;;;;22.24;44.60;100420.75;4355155;32;34399;-78
2022/08/10 05:54:33;;;;;;;4.37;1.27;;;;;;;22.13;43.88;100409.38;4359505;32;34763;-75
2022/08/10 05:57:22;;;;;;;5.93;1.58;;;;;;;21.94;44.02;100399.06;4372843;32;34545;-78
2022/08/10 06:00:10;;;;;;;3.45;0.93;;;;;;;21.87;44.31;100412.88;4354319;32;35561;-77
2022/08/10 06:03:22;;;;;;;4.60;1.30;;;;;;;22.19;43.47;100409.91;4363035;32;33866;-75
2022/08/10 06:06:09;;;;;;;3.92;1.08;;;;;;;22.02;42.78;100397.19;4360108;32;34755;-78
2022/08/10 06:08:58;;;;;;;2.25;1.02;;;;;;;21.94;43.34;100404.66;4363639;32;35977;-77
2022/08/10 06:11:45;;;;;;;4.60;1.50;;;;;;;22.15;42.10;100406.22;4357777;32;34619;-77
2022/08/10 06:14:59;;;;;;;3.92;1.30;;;;;;;22.94;41.89;100415.91;4364059;32;34085;-78
2022/08/10 06:17:50;;;;;;;4.45;1.35;;;;;;;22.50;42.23;100413.63;4358114;32;35668;-77
2022/08/10 06:20:48;;;;;;;2.00;1.10;;;;;;;22.96;41.81;100413.59;4362832;32;36011;-77
2022/08/10 06:23:35;;;;;;;3.08;1.33;;;;;;;23.05;41.51;100414.13;4357905;32;34735;-80
2022/08/10 06:26:22;;;;;;;6.18;1.30;;;;;;;22.63;41.74;100401.91;4364787;32;34152;-77
2022/08/10 06:29:12;;;;;;;3.62;1.58;;;;;;;23.27;41.33;100407.66;4360649;32;34130;-77
2022/08/10 06:32:00;;;;;;;3.28;1.00;;;;;;;23.53;40.49;100409.59;4363880;32;34649;-80
2022/08/10 06:34:53;;;;;;;2.78;1.20;;;;;;;23.04;41.04;100409.72;4359738;32;35520;-78
2022/08/10 06:37:40;;;;;;;3.05;1.27;;;;;;;23.42;40.96;100413.44;4366747;32;34155;-78
2022/08/10 06:40:28;;;;;;;2.25;1.20;;;;;;;23.49;41.59;100407.94;4362814;32;34666;-79
2022/08/10 06:43:17;;;;;;;3.25;1.12;;;;;;;23.27;40.62;100407.66;4360517;32;35182;-78
2022/08/10 06:46:07;;;;;;;4.85;1.65;;;;;;;23.01;41.15;100411.28;4367358;32;35057;-79
2022/08/10 06:48:59;;;;;;;4.30;1.17;;;;;;;23.17;40.65;100416.72;4360961;32;34380;-78
2022/08/10 06:51:45;;;;;;;;;;;;;;;23.66;39.85;100406.56;4364504;32;36041;-78
2022/08/10 06:54:42;;;;;;;2.35;1.00;;;;;;;23.48;41.02;100403.53;4341698;32;35478;-77
2022/08/10 06:57:31;;;;;;;3.20;1.55;;;;;;;23.01;41.85;100400.09;4368082;32;34351;-78
2022/08/10 07:00:18;;;;;;;4.03;1.33;;;;;;;22.47;43.02;100403.22;4361840;32;34176;-80
2022/08/10 07:03:09;;;;;;;4.25;1.52;;;;;;;22.96;41.45;100403.22;4350130;32;34724;-78
2022/08/10 07:05:57;;;;;;;6.45;1.48;;;;;;;23.31;40.90;100408.53;4358957;32;35079;-78
2022/08/10 07:08:44;;;;;;;4.82;1.23;;;;;;;23.13;41.23;100408.25;4353630;32;34656;-78
2022/08/10 07:11:31;;;;;;;3.17;1.52;;;;;;;23.81;40.72;100408.34;4359256;32;33964;-78
2022/08/10 07:14:17;;;;;;;3.70;1.20;;;;;;;23.78;39.86;100409.94;4359665;32;35598;-78
2022/08/10 07:17:05;;;;;;;2.08;1.20;;;;;;;24.40;38.89;100403.75;4352711;32;34986;-77
2022/08/10 07:19:54;;;;;;;3.20;1.10;;;;;;;24.08;39.54;100400.66;4359823;32;33559;-78
2022/08/10 07:22:41;;;;;;;5.30;1.40;;;;;;;23.62;40.15;100403.69;4359657;32;35073;-78
2022/08/10 07:25:48;;;;;;;2.45;1.42;;;;;;;23.83;40.30;100399.59;4360834;32;34290;-79
2022/08/10 07:28:34;;;;;;;4.80;1.40;;;;;;;23.55;40.66;100392.44;4364991;32;33838;-79
2022/08/10 07:31:21;;;;;;;5.10;1.42;;;;;;;23.50;40.16;100387.19;4343252;32;33671;-78
2022/08/10 07:34:29;;;;;;;3.25;1.20;;;;;;;23.97;39.79;100394.16;4355328;32;34178;-78
2022/08/10 07:37:15;;;;;;;2.75;1.30;;;;;;;23.97;39.32;100396.94;4360142;32;34612;-78
2022/08/10 07:40:03;;;;;;;5.55;1.70;;;;;;;24.11;38.76;100396.31;4359307;32;35092;-79
2022/08/10 07:42:52;;;;;;;6.12;1.50;;;;;;;24.41;38.26;100398.97;4338113;32;34871;-78
2022/08/10 07:45:39;;;;;;;3.97;1.33;;;;;;;24.34;38.13;100390.50;4376350;32;33085;-78
2022/08/10 07:48:28;;;;;;;3.42;1.30;;;;;;;24.37;37.99;100403.75;4359745;32;34404;-78
2022/08/10 07:51:17;;;;;;;5.22;1.20;;;;;;;23.55;38.92;100389.63;4351972;32;34937;-78
2022/08/10 07:54:07;;;;;;;3.37;1.20;;;;;;;23.72;39.12;100391.88;4352118;32;34308;-78
2022/08/10 07:56:58;;;;;;;3.20;1.20;;;;;;;24.41;38.52;100396.16;4356295;32;34905;-78
2022/08/10 07:59:47;;;;;;;3.80;1.40;;;;;;;24.69;37.50;100399.22;4368475;32;34654;-80
2022/08/10 08:02:53;;;;;;;2.60;1.10;;;;;;;24.84;36.31;100399.34;4352276;32;35475;-79
2022/08/10 08:05:41;;;;;;;3.00;1.35;;;;;;;23.89;37.40;100386.88;4349082;32;34867;-80
2022/08/10 08:08:47;;;;;;;3.05;1.23;;;;;;;24.36;38.13;100393.72;4349790;32;35130;-79
2022/08/10 08:11:35;;;;;;;4.45;1.30;;;;;;;24.59;36.88;100391.56;4365540;32;35483;-79
2022/08/10 08:14:22;;;;;;;3.58;1.12;;;;;;;25.07;36.07;100394.31;4356920;32;35976;-80
2022/08/10 08:17:09;;;;;;;4.50;1.20;;;;;;;24.72;36.48;100400.44;4366635;32;34112;-79
2022/08/10 08:19:57;;;;;;;3.00;1.17;;;;;;;25.51;34.72;100396.16;4356868;32;34111;-79
2022/08/10 08:22:47;;;;;;;2.85;1.12;;;;;;;25.17;34.41;100392.78;4357913;32;34596;-78
2022/08/10 08:25:54;;;;;;;1.55;1.08;;;;;;;25.84;34.64;100399.09;4349235;32;35504;-79
2022/08/10 08:28:41;;;;;;;5.60;1.45;;;;;;;26.53;34.09;100387.59;4349999;32;34377;-78
2022/08/10 08:31:28;;;;;;;3.03;1.65;;;;;;;26.14;32.77;100379.91;4357850;32;34205;-79
2022/08/10 08:34:16;;;;;;;4.07;1.40;;;;;;;25.16;34.43;100381.94;4359348;32;35581;-79
2022/08/10 08:37:03;;;;;;;3.03;1.48;;;;;;;25.76;33.69;100378.59;4352753;32;34866;-78
2022/08/10 08:39:49;;;;;;;5.80;1.20;;;;;;;26.50;33.53;100376.31;4354873;32;35702;-80
2022/08/10 08:43:04;;;;;;;4.18;1.20;;;;;;;26.10;33.18;100379.09;4367968;32;33955;-79
2022/08/10 08:46:13;;;;;;;6.53;1.92;;;;;;;26.11;32.23;100372.28;4358787;32;35482;-79
2022/08/10 08:49:21;;;;;;;4.82;1.30;;;;;;;25.84;32.14;100371.00;4357791;32;35464;-77
2022/08/10 08:52:30;;;;;;;2.22;1.30;;;;;;;27.01;32.58;100389.13;4358825;32;34709;-79
2022/08/10 08:55:51;;;;;;;2.25;1.30;;;;;;;26.78;31.72;100378.31;4347258;32;34766;-79
2022/08/10 08:59:13;;;;;;;4.05;1.77;;;;;;;26.08;32.34;100380.72;4358659;32;35526;-81
2022/08/10 09:02:16;;;;;;;3.75;1.42;;;;;;;26.22;32.47;100377.91;4347174;32;36037;-79
2022/08/10 09:05:22;;;;;;;4.82;1.42;;;;;;;25.82;33.11;100377.00;4357566;32;35118;-81
2022/08/10 09:08:32;;;;;;;2.40;1.37;;;;;;;26.66;33.15;100388.78;4358495;32;35054;-77
2022/08/10 09:11:50;;;;;;;2.55;1.20;;;;;;;26.72;31.03;100383.53;4355077;32;36692;-80
2022/08/10 09:14:40;;;;;;;3.30;1.30;;;;;;;27.16;31.11;100365.44;4357436;32;35949;-78
2022/08/10 09:17:51;;;;;;;5.35;1.40;;;;;;;26.96;31.81;100369.88;4357513;32;35515;-78
2022/08/10 09:20:58;;;;;;;2.87;1.50;;;;;;;27.08;31.58;100372.25;4351690;32;34149;-78
2022/08/10 09:23:57;;;;;;;5.45;1.52;;;;;;;28.01;31.03;100367.06;4352400;32;34755;-78
2022/08/10 09:26:52;;;;;;;6.10;1.42;;;;;;;27.82;29.58;100363.97;4343985;32;35759;-77
2022/08/10 09:29:46;;;;;;;5.12;1.50;;;;;;;28.19;29.85;100371.75;4367648;32;34245;-79
2022/08/10 09:32:39;;;;;;;3.45;1.40;;;;;;;27.30;29.88;100368.19;4357342;32;34144;-79
2022/08/10 09:36:11;;;;;;;2.95;1.23;;;;;;;27.28;30.20;100364.97;4354516;32;35671;-78
2022/08/10 09:39:27;;;;;;;4.28;1.30;;;;;;;27.42;29.67;100366.13;4363386;32;35689;-79
2022/08/10 09:42:43;;;;;;;4.40;1.42;;;;;;;28.15;28.80;100363.34;4352751;32;34875;-80
2022/08/10 09:46:13;;;;;;;1.67;1.27;;;;;;;26.96;30.12;100356.63;4357211;32;35262;-78
2022/08/10 09:49:14;;;;;;;2.08;1.30;;;;;;;28.25;29.72;100359.63;4357085;32;35529;-77
2022/08/10 09:52:24;;;;;;;2.72;1.17;;;;;;;28.92;27.85;100356.63;4346524;32;33850;-77
2022/08/10 09:55:37;;;;;;;3.17;1.45;;;;;;;29.23;27.49;100356.69;4342393;32;34396;-78
2022/08/10 09:58:59;;;;;;;5.15;1.48;;;;;;;29.25;27.83;100351.44;4343167;32;33775;-78
2022/08/10 10:02:12;;;;;;;3.80;1.30;;;;;;;28.77;28.12;100355.16;4344809;32;34689;-80
2022/08/10 10:05:09;;;;;;;4.53;1.48;;;;;;;27.62;28.77;100350.34;4348168;32;34606;-78
2022/08/10 10:08:12;;;;;;;4.45;1.37;;;;;;;27.37;29.56;100340.00;4364030;32;34583;-78
2022/08/10 10:11:08;;;;;;;2.35;1.10;;;;;;;28.33;28.12;100345.50;4366446;32;33676;-79
2022/08/10 10:13:55;;;;;;;2.95;1.02;;;;;;;27.19;27.96;100336.47;4343856;32;35608;-79
2022/08/10 10:17:11;;;;;;;3.05;1.35;;;;;;;26.97;28.66;100340.53;4358587;32;34896;-78
2022/08/10 10:20:23;;;;;;;2.25;1.20;;;;;;;27.72;28.29;100338.25;4358175;32;35496;-78
2022/08/10 10:23:35;;;;;;;1.90;1.15;;;;;;;27.08;28.29;100332.88;4344852;32;34082;-79
2022/08/10 10:26:31;;;;;;;1.75;1.20;;;;;;;28.39;28.54;100326.91;4345772;32;34760;-78
2022/08/10 10:29:48;;;;;;;4.75;1.12;;;;;;;28.74;26.67;100327.81;4355645;32;36080;-78
2022/08/10 10:33:02;;;;;;;3.25;1.27;;;;;;;28.82;26.02;100326.53;4344412;32;34140;-77
2022/08/10 10:35:52;;;;;;;2.33;1.10;;;;;;;29.76;25.84;100324.19;4343647;32;34112;-78
2022/08/10 10:38:40;;;;;;;3.17;1.33;;;;;;;29.58;25.50;100311.09;4356502;32;34273;-77
2022/08/10 10:41:47;;;;;;;2.80;1.10;;;;;;;29.67;25.92;100310.59;4359042;32;35972;-78
2022/08/10 10:45:20;;;;;;;2.85;1.23;;;;;;;30.36;24.87;100307.50;4354117;32;34436;-78
2022/08/10 10:48:16;;;;;;;2.83;0.90;;;;;;;29.95;24.27;100300.88;4349530;32;35358;-78
2022/08/10 10:51:14;;;;;;;4.95;1.30;;;;;;;30.44;24.20;100298.47;4350481;32;34683;-78
2022/08/10 10:54:06;;;;;;;4.50;1.20;;;;;;;29.95;25.67;100288.78;4353949;32;35194;-78
2022/08/10 10:57:18;;;;;;;3.40;1.15;;;;;;;29.97;25.10;100295.63;4346720;32;35571;-78
2022/08/10 11:00:08;;;;;;;4.30;1.17;;;;;;;31.02;23.92;100301.03;4343550;32;35001;-79
2022/08/10 11:02:57;;;;;;;2.00;1.02;;;;;;;30.43;24.45;100288.41;4358876;32;34750;-78
2022/08/10 11:06:19;;;;;;;4.22;0.90;;;;;;;30.82;22.46;100294.56;4349527;32;35663;-78
2022/08/10 11:09:30;;;;;;;1.48;0.90;;;;;;;30.72;21.92;100293.53;4314651;32;36260;-78
2022/08/10 11:12:42;;;;;;;2.08;1.12;;;;;;;31.74;21.33;100294.63;4358863;32;33920;-78
2022/08/10 11:15:40;;;;;;;1.80;1.15;;;;;;;30.70;22.29;100284.66;4357469;32;34365;-78
2022/08/10 11:18:35;;;;;;;2.10;1.00;;;;;;;29.63;23.25;100280.78;4361106;32;35945;-79
2022/08/10 11:21:49;;;;;;;4.00;1.00;;;;;;;28.92;25.21;100289.75;4359035;32;35472;-79
2022/08/10 11:25:27;;;;;;;4.85;1.30;;;;;;;30.14;24.45;100281.59;4356407;32;33774;-78
2022/08/10 11:28:28;;;;;;;2.53;1.10;;;;;;;30.64;23.71;100272.25;4328440;32;35541;-78
2022/08/10 11:31:14;;;;;;;4.25;1.10;;;;;;;31.73;22.72;100269.56;4348066;32;35948;-78
2022/08/10 11:34:15;;;;;;;2.65;1.27;;;;;;;30.68;23.11;100276.62;4359134;32;36264;-78
2022/08/10 11:37:27;;;;;;;;;;;;;;;31.85;22.08;100271.72;4352538;32;34985;-79
2022/08/10 11:40:51;;;;;;;4.90;1.08;;;;;;;31.71;22.78;100267.19;4359276;32;35499;-78
2022/08/10 11:43:41;;;;;;;1.52;0.77;;;;;;;31.28;21.05;100270.97;4360100;32;35579;-79
2022/08/10 11:46:31;;;;;;;3.53;1.02;;;;;;;30.39;20.71;100261.41;4348638;32;34791;-78
2022/08/10 11:49:23;;;;;;;1.55;1.05;;;;;;;29.51;22.76;100274.47;4347780;32;33975;-79
2022/08/10 11:52:19;;;;;;;4.45;1.10;;;;;;;29.64;22.78;100271.13;4357926;32;34778;-79
2022/08/10 11:55:32;;;;;;;4.93;1.10;;;;;;;30.47;22.86;100272.16;4347451;32;35667;-78
2022/08/10 12:01:29;;;;;;;4.82;1.50;;;;;;;30.84;21.26;100258.94;4356373;32;34868;-79
2022/08/10 12:04:17;;;;;;;3.58;1.67;;;;;;;31.07;20.65;100257.28;4354261;32;34294;-79
2022/08/10 12:07:04;;;;;;;2.87;1.42;;;;;;;30.90;20.90;100254.37;4359536;32;35458;-78
2022/08/10 12:10:12;;;;;;;2.33;1.50;;;;;;;31.81;19.82;100265.31;4366016;32;35232;-80
2022/08/10 12:13:02;;;;;;;2.95;1.20;;;;;;;32.44;19.55;100256.44;4358079;32;33826;-78
2022/08/10 12:16:00;;;;;;;4.15;1.10;;;;;;;32.54;19.65;100254.59;4358759;32;34818;-79
2022/08/10 12:18:55;;;;;;;5.82;1.10;;;;;;;32.65;19.68;100255.09;4347150;32;34907;-78
2022/08/10 12:21:46;;;;;;;2.08;1.08;;;;;;;32.35;19.35;100244.16;4357465;32;34744;-78
2022/08/10 12:24:49;;;;;;;;;;;;;;;31.90;18.98;100234.34;4349852;32;34228;-79
2022/08/10 12:27:39;;;;;;;1.23;0.70;;;;;;;32.30;18.17;100239.81;4357261;32;34945;-79
2022/08/10 12:30:28;;;;;;;2.08;0.90;;;;;;;32.16;18.03;100241.00;4358540;32;35988;-79
2022/08/10 12:33:20;;;;;;;1.60;0.85;;;;;;;31.71;18.50;100238.06;4368216;32;34695;-78
2022/08/10 12:36:22;;;;;;;2.55;0.77;;;;;;;30.78;20.79;100245.72;4355650;32;33750;-78
2022/08/10 12:39:17;;;;;;;1.00;0.90;;;;;;;31.49;18.87;100237.78;4357855;32;35688;-78
2022/08/10 12:42:09;;;;;;;4.12;1.08;;;;;;;32.79;19.42;100236.87;4357559;32;36001;-78
2022/08/10 12:45:41;;;;;;;2.62;0.80;;;;;;;32.64;19.29;100232.84;4357867;32;35609;-79
2022/08/10 12:48:35;;;;;;;1.58;0.60;;;;;;;31.86;18.04;100227.19;4357901;32;35192;-78
2022/08/10 12:51:26;;;;;;;2.53;0.95;;;;;;;31.36;17.91;100234.81;4357508;32;34273;-79
2022/08/10 12:54:19;;;;;;;4.43;0.80;;;;;;;31.28;18.52;100225.69;4359001;32;34869;-78
2022/08/10 12:57:21;;;;;;;3.05;1.30;;;;;;;32.51;18.71;100229.19;4352917;32;34596;-78
2022/08/10 13:00:08;;;;;;;2.28;0.80;;;;;;;33.50;17.65;100218.94;4356750;32;33237;-78
2022/08/10 13:03:04;;;;;;;1.77;1.00;;;;;;;33.08;17.84;100219.81;4358425;32;34758;-78
2022/08/10 13:05:51;;;;;;;1.52;0.80;;;;;;;33.03;17.46;100219.59;4358689;32;34736;-77
2022/08/10 13:12:04;;;;;;;4.50;0.95;;;;;;;32.28;19.38;100210.34;4360446;32;33605;-77
2022/08/10 13:15:13;;;;;;;2.75;1.12;;;;;;;31.84;19.53;100196.44;4358530;32;35683;-78
2022/08/10 13:18:27;;;;;;;1.00;0.62;;;;;;;30.64;20.85;100207.22;4358317;32;35965;-78
2022/08/10 13:21:15;;;;;;;1.50;1.00;;;;;;;32.49;18.97;100206.94;4336919;32;35509;-78
2022/08/10 13:24:12;;;;;;;2.70;1.00;;;;;;;31.91;18.49;100201.19;4362660;32;34683;-79
2022/08/10 13:27:05;;;;;;;2.42;0.90;;;;;;;32.49;19.28;100201.25;4355541;32;34644;-78
2022/08/10 13:30:12;;;;;;;2.65;1.00;;;;;;;33.50;18.30;100193.34;4348664;32;36132;-78
2022/08/10 13:32:59;;;;;;;2.47;1.00;;;;;;;32.24;19.25;100204.75;4354355;32;34255;-78
2022/08/10 13:35:46;;;;;;;6.00;1.00;;;;;;;32.70;18.57;100199.84;4356778;32;34145;-78
2022/08/10 13:38:42;;;;;;;2.50;0.85;;;;;;;31.25;20.40;100192.59;4347711;32;34661;-77
2022/08/10 13:41:40;;;;;;;2.78;1.00;;;;;;;30.75;20.35;100188.00;4365384;32;34554;-78
2022/08/10 13:44:30;;;;;;;3.25;0.95;;;;;;;32.31;18.99;100183.94;4346757;32;35295;-78
2022/08/10 13:47:17;;;;;;;5.15;1.10;;;;;;;32.82;18.66;100186.94;4358198;32;34236;-77
2022/08/10 13:50:11;;;;;;;2.28;0.98;;;;;;;33.30;18.61;100188.72;4358085;32;35671;-78